Time;durP1;ratioP1;P1;durP2;ratioP2;P2;SDS_P1;SDS_P2;PMS_P1;PMS_P2;Temp;Humidity;BMP_temperature;BMP_pressure;BME280_temperature;BME280_humidity;BME280_pressure;Samples;Min_cycle;Max_cycle;Signal;HPM_P1;HPM_P2
2020/12/20 00:02:20;;;;;;;57.28;25.60;;;;;;;5.54;100.00;102564.13;5014009;28;20037;-73
2020/12/20 00:05:07;;;;;;;50.38;23.85;;;;;;;5.75;100.00;102566.53;5012727;28;20025;-72
2020/12/20 00:07:54;;;;;;;55.50;24.08;;;;;;;6.18;100.00;102569.66;5012497;28;20040;-73
2020/12/20 00:10:39;;;;;;;47.78;21.33;;;;;;;6.09;100.00;102578.06;5013058;28;20030;-72
2020/12/20 00:13:25;;;;;;;46.40;21.77;;;;;;;5.96;100.00;102568.13;5013749;28;20030;-73
2020/12/20 00:16:11;;;;;;;48.58;21.67;;;;;;;5.95;100.00;102575.88;5012719;28;20045;-74
2020/12/20 00:18:56;;;;;;;51.83;23.48;;;;;;;5.93;100.00;102577.53;4999597;28;20040;-72
2020/12/20 00:21:42;;;;;;;46.47;21.52;;;;;;;5.75;100.00;102576.94;5012370;28;20041;-73
2020/12/20 00:24:28;;;;;;;49.17;21.63;;;;;;;5.98;100.00;102582.03;5012819;28;20061;-74
2020/12/20 00:27:14;;;;;;;55.90;23.83;;;;;;;6.09;100.00;102588.47;5012669;28;20029;-73
2020/12/20 00:30:00;;;;;;;52.10;23.13;;;;;;;6.12;100.00;102582.47;5015565;28;20021;-73
2020/12/20 00:32:46;;;;;;;49.83;21.48;;;;;;;5.79;100.00;102586.59;5016741;28;20065;-73
2020/12/20 00:35:32;;;;;;;51.70;22.65;;;;;;;5.97;100.00;102585.47;5016370;28;20026;-74
2020/12/20 00:38:18;;;;;;;50.08;20.77;;;;;;;5.73;100.00;102581.19;5015466;28;20030;-73
2020/12/20 00:41:09;;;;;;;47.60;21.58;;;;;;;5.47;100.00;102576.03;5015876;28;20026;-73
2020/12/20 00:43:55;;;;;;;48.10;20.75;;;;;;;5.95;100.00;102588.88;5015900;28;20033;-72
2020/12/20 00:46:41;;;;;;;51.13;21.48;;;;;;;6.17;100.00;102581.78;5016312;28;20105;-74
2020/12/20 00:49:28;;;;;;;47.95;21.40;;;;;;;5.84;100.00;102578.16;5015601;28;20124;-72
2020/12/20 00:52:14;;;;;;;48.75;22.05;;;;;;;6.10;100.00;102573.75;5015471;28;20044;-73
2020/12/20 00:55:00;;;;;;;48.95;21.08;;;;;;;6.01;100.00;102573.44;5015422;28;20110;-73
2020/12/20 00:57:45;;;;;;;43.40;20.60;;;;;;;6.18;100.00;102565.31;5015409;28;20519;-73
2020/12/20 01:00:31;;;;;;;44.58;20.63;;;;;;;5.81;100.00;102564.13;5015646;28;20095;-73
2020/12/20 01:03:17;;;;;;;45.72;20.77;;;;;;;5.55;100.00;102560.72;5015505;28;20018;-73
2020/12/20 01:06:03;;;;;;;46.08;21.13;;;;;;;5.88;100.00;102559.19;5016463;28;20358;-72
2020/12/20 01:08:50;;;;;;;50.75;23.13;;;;;;;5.83;100.00;102562.50;5014823;28;20080;-72
2020/12/20 01:11:36;;;;;;;49.33;21.90;;;;;;;5.33;100.00;102561.72;5015431;28;20108;-73
2020/12/20 01:14:21;;;;;;;49.20;21.40;;;;;;;5.15;100.00;102555.03;5015514;28;20025;-73
2020/12/20 01:17:07;;;;;;;49.83;22.33;;;;;;;5.74;100.00;102554.38;5015378;28;20026;-72
2020/12/20 01:19:53;;;;;;;48.63;22.85;;;;;;;5.52;100.00;102554.50;5014742;28;20057;-72
2020/12/20 01:22:38;;;;;;;46.35;21.50;;;;;;;5.36;100.00;102554.00;5016007;28;20032;-72
2020/12/20 01:25:24;;;;;;;44.65;20.85;;;;;;;5.75;100.00;102550.94;5015346;28;20031;-73
2020/12/20 01:28:10;;;;;;;46.95;20.70;;;;;;;5.62;100.00;102552.25;5015006;28;20029;-73
2020/12/20 01:30:56;;;;;;;46.40;22.33;;;;;;;6.21;100.00;102551.50;5015594;28;20014;-72
2020/12/20 01:33:42;;;;;;;51.40;22.52;;;;;;;6.32;100.00;102560.50;5016471;28;20052;-73
2020/12/20 01:36:29;;;;;;;49.53;21.98;;;;;;;5.91;100.00;102553.19;5015026;28;20426;-73
2020/12/20 01:39:17;;;;;;;46.42;20.95;;;;;;;5.88;100.00;102555.69;5015687;28;20034;-73
2020/12/20 01:42:03;;;;;;;49.67;22.13;;;;;;;5.95;100.00;102550.72;5015399;28;20035;-73
2020/12/20 01:44:49;;;;;;;44.53;20.95;;;;;;;6.09;100.00;102554.63;5014687;28;20479;-72
2020/12/20 01:47:34;;;;;;;52.60;22.38;;;;;;;6.18;100.00;102548.84;5014456;28;20196;-73
2020/12/20 01:50:21;;;;;;;44.42;21.17;;;;;;;5.92;100.00;102547.16;5015723;28;20081;-73
2020/12/20 01:53:06;;;;;;;46.05;21.10;;;;;;;5.92;100.00;102547.16;5014971;28;20113;-72
2020/12/20 01:55:59;;;;;;;50.78;23.63;;;;;;;5.87;100.00;102543.53;5014536;28;20522;-73
2020/12/20 01:58:46;;;;;;;52.75;24.55;;;;;;;6.15;100.00;102543.53;5015547;28;20045;-73
2020/12/20 02:01:32;;;;;;;47.28;22.73;;;;;;;6.16;100.00;102542.69;5015995;28;20044;-72
2020/12/20 02:04:18;;;;;;;46.60;21.25;;;;;;;6.41;100.00;102535.63;5014192;28;20030;-72
2020/12/20 02:07:04;;;;;;;44.88;21.67;;;;;;;6.12;100.00;102540.81;5014339;28;20399;-72
2020/12/20 02:09:50;;;;;;;48.67;22.48;;;;;;;5.52;100.00;102545.00;5015098;28;20348;-73
2020/12/20 02:12:35;;;;;;;50.10;23.17;;;;;;;5.82;100.00;102540.78;5014104;28;20034;-73
2020/12/20 02:15:21;;;;;;;49.90;22.00;;;;;;;5.85;100.00;102537.38;5014387;28;20095;-72
2020/12/20 02:18:07;;;;;;;56.55;22.67;;;;;;;5.75;100.00;102540.53;5014114;28;20104;-73
2020/12/20 02:20:53;;;;;;;46.50;22.33;;;;;;;5.97;100.00;102536.06;5014147;28;20025;-73
2020/12/20 02:23:43;;;;;;;50.85;22.20;;;;;;;6.12;100.00;102540.81;5014285;28;20068;-73
2020/12/20 02:26:30;;;;;;;50.25;23.45;;;;;;;6.01;100.00;102537.00;5015655;28;20526;-73
2020/12/20 02:29:16;;;;;;;50.00;22.23;;;;;;;5.87;100.00;102539.19;5015049;28;20032;-73
2020/12/20 02:32:02;;;;;;;48.80;22.20;;;;;;;6.27;100.00;102542.16;5013861;28;20030;-73
2020/12/20 02:34:47;;;;;;;43.92;21.10;;;;;;;6.17;100.00;102534.03;5013822;28;20428;-72
2020/12/20 02:37:33;;;;;;;42.67;20.75;;;;;;;6.11;100.00;102536.47;5013909;28;20025;-72
2020/12/20 02:40:19;;;;;;;44.95;21.05;;;;;;;6.25;100.00;102543.84;5013717;28;20052;-73
2020/12/20 02:43:05;;;;;;;41.13;20.92;;;;;;;5.78;100.00;102533.69;5013570;28;20045;-73
2020/12/20 02:45:50;;;;;;;40.42;19.75;;;;;;;5.77;100.00;102533.63;5012492;28;20033;-72
2020/12/20 02:48:36;;;;;;;40.72;20.42;;;;;;;6.13;100.00;102542.59;5013756;28;20061;-72
2020/12/20 02:51:22;;;;;;;45.95;22.35;;;;;;;5.94;100.00;102541.16;5013691;28;20033;-73
2020/12/20 02:54:08;;;;;;;51.80;23.73;;;;;;;5.14;100.00;102541.16;5013506;28;20030;-73
2020/12/20 02:56:54;;;;;;;39.35;20.30;;;;;;;5.31;100.00;102533.94;5013973;28;20121;-73
2020/12/20 02:59:39;;;;;;;42.28;20.15;;;;;;;4.95;100.00;102533.56;5014700;28;20136;-73
2020/12/20 03:02:25;;;;;;;40.72;19.17;;;;;;;4.73;100.00;102536.28;5014282;28;20374;-73
2020/12/20 03:05:11;;;;;;;42.90;20.00;;;;;;;5.22;100.00;102528.41;5014473;28;20029;-72
2020/12/20 03:07:57;;;;;;;42.78;20.38;;;;;;;5.81;100.00;102531.22;5015601;28;20564;-72
2020/12/20 03:10:42;;;;;;;45.30;20.85;;;;;;;6.00;100.00;102530.06;5014507;28;20044;-72
2020/12/20 03:13:28;;;;;;;46.65;20.75;;;;;;;6.04;100.00;102539.72;5014541;28;20053;-72
2020/12/20 03:16:14;;;;;;;42.67;19.63;;;;;;;6.00;100.00;102530.06;5014847;28;20029;-72
2020/12/20 03:19:00;;;;;;;39.15;19.17;;;;;;;6.00;100.00;102533.56;5016234;28;20033;-71
2020/12/20 03:21:45;;;;;;;42.38;20.60;;;;;;;5.88;100.00;102527.97;5014581;28;20034;-72
2020/12/20 03:24:31;;;;;;;45.78;20.20;;;;;;;5.56;100.00;102540.78;5016846;28;20057;-71
2020/12/20 03:27:17;;;;;;;42.88;21.25;;;;;;;5.64;100.00;102535.00;5015639;28;20030;-72
2020/12/20 03:30:06;;;;;;;44.40;20.27;;;;;;;5.58;100.00;102529.59;5014549;28;20032;-71
2020/12/20 03:32:51;;;;;;;43.50;19.80;;;;;;;5.61;100.00;102528.78;5013342;28;20507;-73
2020/12/20 03:35:37;;;;;;;44.95;20.13;;;;;;;5.38;100.00;102528.97;5013147;28;20377;-72
2020/12/20 03:38:23;;;;;;;40.72;19.42;;;;;;;5.70;100.00;102524.75;5014207;28;20100;-72
2020/12/20 03:41:09;;;;;;;42.65;19.98;;;;;;;6.04;100.00;102527.59;5012972;28;20038;-73
2020/12/20 03:43:54;;;;;;;48.42;20.55;;;;;;;6.17;100.00;102531.44;5012778;28;20104;-72
2020/12/20 03:46:40;;;;;;;41.25;19.77;;;;;;;5.97;100.00;102535.16;5013285;28;20022;-72
2020/12/20 03:49:26;;;;;;;41.17;19.80;;;;;;;5.57;100.00;102530.44;5012851;28;20120;-73
2020/12/20 03:52:12;;;;;;;44.30;20.27;;;;;;;5.04;100.00;102528.69;5012768;28;20026;-72
2020/12/20 03:54:57;;;;;;;39.90;18.95;;;;;;;5.98;100.00;102549.97;5012884;28;20458;-73
2020/12/20 03:57:43;;;;;;;43.25;19.98;;;;;;;5.52;100.00;102539.81;5012993;28;20029;-72
2020/12/20 04:00:29;;;;;;;43.63;19.95;;;;;;;5.49;100.00;102534.50;5012918;28;20108;-72
2020/12/20 04:03:14;;;;;;;44.92;21.08;;;;;;;5.77;100.00;102528.44;5013488;28;20038;-72
2020/12/20 04:06:00;;;;;;;46.83;21.15;;;;;;;5.42;100.00;102540.34;5016282;28;20030;-73
2020/12/20 04:08:46;;;;;;;42.88;19.45;;;;;;;4.84;100.00;102542.72;5017056;28;20029;-72
2020/12/20 04:11:32;;;;;;;43.13;19.55;;;;;;;5.32;100.00;102544.34;5017429;28;20026;-72
2020/12/20 04:14:18;;;;;;;47.67;21.17;;;;;;;5.65;100.00;102541.94;5016555;28;20041;-72
2020/12/20 04:17:03;;;;;;;44.13;20.90;;;;;;;5.71;100.00;102541.25;5016549;28;20116;-72
2020/12/20 04:19:49;;;;;;;52.15;23.20;;;;;;;5.99;100.00;102549.13;5015992;28;20091;-71
2020/12/20 04:22:35;;;;;;;47.33;22.63;;;;;;;6.11;100.00;102550.34;5017338;28;20036;-71
2020/12/20 04:25:21;;;;;;;49.67;22.92;;;;;;;6.00;100.00;102554.38;5016269;28;20029;-72
2020/12/20 04:28:06;;;;;;;52.92;22.90;;;;;;;5.55;100.00;102550.31;5015894;28;20058;-71
2020/12/20 04:30:52;;;;;;;45.22;21.35;;;;;;;6.10;100.00;102559.00;5016087;28;20489;-72
2020/12/20 04:33:39;;;;;;;53.38;23.45;;;;;;;5.56;100.00;102553.78;5016101;28;20029;-72
2020/12/20 04:36:25;;;;;;;50.95;22.90;;;;;;;5.98;100.00;102561.22;5015863;28;20103;-73
2020/12/20 04:39:11;;;;;;;50.00;21.25;;;;;;;5.82;100.00;102561.59;5015179;28;20343;-71
2020/12/20 04:41:59;;;;;;;45.38;20.33;;;;;;;4.98;100.00;102551.84;5016155;28;20095;-71
2020/12/20 04:44:46;;;;;;;46.25;21.60;;;;;;;4.90;100.00;102553.31;5016017;28;20034;-70
2020/12/20 04:47:32;;;;;;;53.08;22.38;;;;;;;4.83;100.00;102559.13;5015648;28;20113;-72
2020/12/20 04:50:19;;;;;;;52.13;21.52;;;;;;;5.18;100.00;102556.00;5015577;28;20042;-71
2020/12/20 04:53:06;;;;;;;48.75;20.95;;;;;;;5.02;100.00;102564.13;5016439;28;20053;-71
2020/12/20 04:55:52;;;;;;;51.80;20.08;;;;;;;4.91;100.00;102564.59;5015593;28;20032;-71
2020/12/20 04:58:39;;;;;;;44.00;19.70;;;;;;;5.33;100.00;102576.44;5015732;28;20038;-72
2020/12/20 05:01:25;;;;;;;52.45;21.05;;;;;;;5.54;100.00;102576.25;5015535;28;20096;-71
2020/12/20 05:04:10;;;;;;;53.75;21.23;;;;;;;5.52;100.00;102571.00;5016421;28;20116;-72
2020/12/20 05:06:56;;;;;;;49.47;20.58;;;;;;;5.14;100.00;102569.72;5015503;28;20457;-72
2020/12/20 05:09:47;;;;;;;49.70;20.52;;;;;;;5.40;100.00;102574.06;5015263;28;20052;-72
2020/12/20 05:12:34;;;;;;;57.30;21.63;;;;;;;5.50;100.00;102574.38;5015307;28;20036;-73
2020/12/20 05:15:25;;;;;;;57.55;22.88;;;;;;;5.58;100.00;102576.38;5015023;28;20030;-74
2020/12/20 05:18:13;;;;;;;54.58;21.90;;;;;;;5.69;100.00;102581.91;5016280;28;20038;-72
2020/12/20 05:20:59;;;;;;;53.72;21.48;;;;;;;6.03;100.00;102593.47;5015989;28;20029;-72
2020/12/20 05:23:44;;;;;;;55.60;21.42;;;;;;;5.72;100.00;102582.94;5015861;28;20033;-72
2020/12/20 05:26:31;;;;;;;57.53;22.67;;;;;;;6.06;100.00;102592.69;5014676;28;20022;-72
2020/12/20 05:29:24;;;;;;;59.53;25.92;;;;;;;6.11;100.00;102591.97;5014858;28;20026;-71
2020/12/20 05:32:24;;;;;;;61.97;26.25;;;;;;;6.08;100.00;102597.13;5016001;28;20055;-73
2020/12/20 05:35:13;;;;;;;51.33;23.13;;;;;;;6.09;100.00;102600.56;5016055;28;20029;-72
2020/12/20 05:37:59;;;;;;;55.92;22.67;;;;;;;5.52;100.00;102591.81;5015971;28;20032;-71
2020/12/20 05:40:47;;;;;;;49.50;21.40;;;;;;;5.35;100.00;102599.03;5014780;28;20038;-71
2020/12/20 05:43:33;;;;;;;52.33;20.70;;;;;;;5.77;100.00;102596.06;5015765;28;20053;-71
2020/12/20 05:46:26;;;;;;;48.45;20.70;;;;;;;5.59;100.00;102611.09;5014630;28;20029;-72
2020/12/20 05:49:23;;;;;;;46.72;20.83;;;;;;;5.66;100.00;102606.13;5015782;28;20046;-72
2020/12/20 05:52:10;;;;;;;53.40;22.13;;;;;;;5.90;100.00;102606.06;5014446;28;20026;-72
2020/12/20 05:54:56;;;;;;;59.78;23.48;;;;;;;5.89;100.00;102612.09;5014539;28;20030;-71
2020/12/20 05:57:42;;;;;;;48.13;22.17;;;;;;;5.39;100.00;102611.28;5014323;28;20099;-72
2020/12/20 06:00:28;;;;;;;50.58;22.42;;;;;;;6.07;100.00;102620.47;5014019;28;20343;-72
2020/12/20 06:03:15;;;;;;;48.47;21.40;;;;;;;5.89;100.00;102618.19;5014506;28;20048;-72
2020/12/20 06:06:02;;;;;;;51.30;21.58;;;;;;;5.61;100.00;102623.28;5014127;28;20057;-72
2020/12/20 06:08:49;;;;;;;51.00;21.15;;;;;;;5.52;100.00;102624.69;5015364;28;20026;-71
2020/12/20 06:11:35;;;;;;;51.65;21.58;;;;;;;5.22;100.00;102629.75;5013966;28;20025;-71
2020/12/20 06:14:25;;;;;;;48.65;20.92;;;;;;;5.21;100.00;102626.28;5014222;28;20034;-71
2020/12/20 06:17:19;;;;;;;48.42;21.58;;;;;;;5.51;100.00;102638.53;5001549;28;20034;-72
2020/12/20 06:20:05;;;;;;;52.58;21.67;;;;;;;5.93;100.00;102635.66;5013732;28;20116;-71
2020/12/20 06:22:54;;;;;;;45.55;20.85;;;;;;;5.54;100.00;102630.84;5014138;28;20022;-71
2020/12/20 06:25:44;;;;;;;45.20;20.60;;;;;;;5.44;100.00;102630.53;5014080;28;20025;-72
2020/12/20 06:28:32;;;;;;;48.65;21.98;;;;;;;5.81;100.00;102630.06;5013031;28;20026;-72
2020/12/20 06:31:20;;;;;;;51.42;22.60;;;;;;;5.71;100.00;102633.19;5014238;28;20029;-72
2020/12/20 06:34:14;;;;;;;45.67;20.77;;;;;;;5.95;100.00;102639.16;5013627;28;20029;-71
2020/12/20 06:37:00;;;;;;;48.47;22.70;;;;;;;6.35;100.00;102638.69;5013955;28;20041;-72
2020/12/20 06:39:46;;;;;;;43.28;22.00;;;;;;;6.37;100.00;102639.63;5013336;28;20105;-72
2020/12/20 06:42:43;;;;;;;48.03;23.08;;;;;;;6.09;100.00;102644.81;5013527;28;20022;-72
2020/12/20 06:45:30;;;;;;;49.28;24.38;;;;;;;5.92;100.00;102640.81;5013501;28;20021;-71
2020/12/20 06:48:16;;;;;;;49.85;22.70;;;;;;;6.16;100.00;102645.06;5014534;28;20084;-71
2020/12/20 06:51:04;;;;;;;43.83;21.10;;;;;;;5.83;100.00;102643.97;5013571;28;20048;-72
2020/12/20 06:53:52;;;;;;;45.33;22.58;;;;;;;5.88;100.00;102644.13;5013644;28;20036;-71
2020/12/20 06:56:37;;;;;;;43.20;21.52;;;;;;;5.75;100.00;102644.56;5014677;28;20069;-72
2020/12/20 06:59:43;;;;;;;39.00;19.13;;;;;;;5.47;100.00;102650.56;5013545;28;20381;-71
2020/12/20 07:02:45;;;;;;;43.88;22.10;;;;;;;5.74;100.00;102646.25;5013213;28;20049;-72
2020/12/20 07:05:40;;;;;;;46.28;23.40;;;;;;;6.19;100.00;102652.94;5013531;28;20030;-71
2020/12/20 07:08:27;;;;;;;46.28;23.02;;;;;;;5.82;100.00;102650.03;5013217;28;20033;-72
2020/12/20 07:11:25;;;;;;;46.00;22.20;;;;;;;5.85;100.00;102649.22;5014654;28;20033;-72
2020/12/20 07:14:20;;;;;;;48.00;22.63;;;;;;;6.00;100.00;102655.84;5013045;28;20092;-72
2020/12/20 07:17:23;;;;;;;48.53;23.15;;;;;;;6.13;100.00;102657.09;5013429;28;20401;-72
2020/12/20 07:20:12;;;;;;;68.38;37.45;;;;;;;6.21;100.00;102658.19;5013496;28;20113;-72
2020/12/20 07:22:58;;;;;;;68.22;30.55;;;;;;;5.84;100.00;102658.78;5014285;28;20036;-72
2020/12/20 07:25:46;;;;;;;49.88;24.20;;;;;;;5.59;100.00;102663.97;5013344;28;20026;-72
2020/12/20 07:28:32;;;;;;;50.70;25.02;;;;;;;6.12;100.00;102673.53;5013137;28;20101;-73
2020/12/20 07:31:20;;;;;;;53.75;27.20;;;;;;;5.94;100.00;102659.97;5013313;28;20393;-73
2020/12/20 07:34:07;;;;;;;54.22;24.92;;;;;;;6.35;100.00;102665.59;5013901;28;20359;-71
2020/12/20 07:36:54;;;;;;;46.00;23.20;;;;;;;6.51;100.00;102666.97;5013147;28;20026;-72
2020/12/20 07:39:39;;;;;;;49.38;24.63;;;;;;;6.74;100.00;102666.78;5017112;28;20065;-72
2020/12/20 07:42:25;;;;;;;45.78;23.48;;;;;;;6.50;100.00;102660.84;5016996;28;20088;-72
2020/12/20 07:45:12;;;;;;;44.67;22.63;;;;;;;6.98;100.00;102667.50;5017073;28;20034;-72
2020/12/20 07:47:58;;;;;;;46.47;23.50;;;;;;;6.52;100.00;102669.63;5015811;28;20041;-73
2020/12/20 07:50:44;;;;;;;48.47;23.20;;;;;;;6.65;100.00;102671.75;5017080;28;20105;-72
2020/12/20 07:53:30;;;;;;;52.17;25.38;;;;;;;6.78;100.00;102673.84;5016624;28;20034;-72
2020/12/20 07:56:37;;;;;;;50.03;26.23;;;;;;;6.56;100.00;102670.59;5017738;28;20105;-72
2020/12/20 07:59:23;;;;;;;45.22;22.40;;;;;;;6.66;100.00;102672.59;5017736;28;20354;-72
2020/12/20 08:02:20;;;;;;;46.03;22.55;;;;;;;6.70;100.00;102675.34;5016523;28;20033;-73
2020/12/20 08:05:11;;;;;;;48.05;23.20;;;;;;;6.22;100.00;102673.88;5016606;28;20034;-72
2020/12/20 08:07:57;;;;;;;45.45;23.92;;;;;;;6.32;100.00;102681.16;5016820;28;20110;-72
2020/12/20 08:10:43;;;;;;;39.70;21.15;;;;;;;6.39;100.00;102682.22;5017337;28;20361;-72
2020/12/20 08:13:30;;;;;;;65.22;30.65;;;;;;;5.98;100.00;102667.03;5017643;28;20366;-72
2020/12/20 08:16:24;;;;;;;48.15;21.83;;;;;;;5.47;100.00;102680.03;5016137;28;20052;-70
2020/12/20 08:19:29;;;;;;;51.45;22.13;;;;;;;5.42;100.00;102678.09;5016945;28;20150;-74
2020/12/20 08:22:17;;;;;;;40.92;20.35;;;;;;;5.59;100.00;102678.69;5017748;28;20450;-73
2020/12/20 08:25:08;;;;;;;43.45;20.90;;;;;;;5.73;100.00;102680.00;5017789;28;20464;-73
2020/12/20 08:27:53;;;;;;;42.45;21.92;;;;;;;6.21;100.00;102684.22;5016404;28;20441;-73
2020/12/20 08:30:39;;;;;;;46.30;20.92;;;;;;;6.06;100.00;102681.16;5016817;28;20030;-78
2020/12/20 08:33:32;;;;;;;40.63;20.08;;;;;;;5.68;100.00;102687.69;5016254;28;20449;-73
2020/12/20 08:36:20;;;;;;;40.47;20.00;;;;;;;6.00;100.00;102681.84;5016089;28;20058;-74
2020/12/20 08:39:06;;;;;;;40.75;21.63;;;;;;;6.39;100.00;102688.28;5016008;28;20033;-73
2020/12/20 08:42:01;;;;;;;40.22;20.80;;;;;;;6.45;100.00;102678.06;5015835;28;20030;-73
2020/12/20 08:44:49;;;;;;;47.63;22.02;;;;;;;6.75;100.00;102684.19;5017187;28;20096;-74
2020/12/20 08:47:35;;;;;;;47.20;22.40;;;;;;;7.26;100.00;102685.66;5015362;28;20108;-74
2020/12/20 08:50:25;;;;;;;45.72;23.08;;;;;;;7.11;100.00;102686.97;5015667;28;20042;-73
2020/12/20 08:53:12;;;;;;;41.75;22.20;;;;;;;7.11;100.00;102684.38;5015569;28;20037;-75
2020/12/20 08:56:07;;;;;;;46.42;21.45;;;;;;;6.49;100.00;102679.94;5015282;28;20026;-73
2020/12/20 08:58:56;;;;;;;43.75;20.73;;;;;;;6.82;100.00;102683.53;5016627;28;20388;-73
2020/12/20 09:01:41;;;;;;;39.90;20.58;;;;;;;6.81;100.00;102686.97;5015215;28;20469;-74
2020/12/20 09:04:35;;;;;;;41.08;20.20;;;;;;;7.20;100.00;102684.63;5015663;28;20104;-73
2020/12/20 09:07:40;;;;;;;40.28;20.08;;;;;;;6.81;100.00;102686.09;5015787;28;20037;-73
2020/12/20 09:10:33;;;;;;;40.83;20.08;;;;;;;6.96;100.00;102678.72;5016894;28;20026;-74
2020/12/20 09:13:24;;;;;;;40.20;20.70;;;;;;;7.38;100.00;102679.88;5015566;28;20120;-74
2020/12/20 09:16:10;;;;;;;37.95;19.65;;;;;;;7.53;100.00;102677.69;5015252;28;20450;-74
2020/12/20 09:18:56;;;;;;;37.72;18.75;;;;;;;5.71;100.00;102672.19;5015120;28;20034;-74
2020/12/20 09:21:48;;;;;;;40.85;20.48;;;;;;;6.29;100.00;102681.03;5015044;28;20025;-73
2020/12/20 09:24:46;;;;;;;42.38;20.42;;;;;;;5.97;100.00;102679.16;5016102;28;20057;-74
2020/12/20 09:27:32;;;;;;;41.45;21.23;;;;;;;6.49;100.00;102677.34;5014911;28;20037;-72
2020/12/20 09:30:30;;;;;;;40.35;20.85;;;;;;;5.96;100.00;102673.88;5015070;28;20030;-72
2020/12/20 09:33:23;;;;;;;39.97;19.85;;;;;;;6.12;100.00;102676.16;5014969;28;20351;-71
2020/12/20 09:36:15;;;;;;;44.80;22.02;;;;;;;6.42;100.00;102680.56;5014707;28;20088;-72
2020/12/20 09:39:02;;;;;;;39.80;20.90;;;;;;;6.45;100.00;102674.56;5014810;28;20454;-72
2020/12/20 09:41:48;;;;;;;37.20;19.15;;;;;;;6.30;100.00;102675.00;5015656;28;20036;-72
2020/12/20 09:44:34;;;;;;;94.93;54.65;;;;;;;6.26;100.00;102674.88;5015295;28;20038;-72
2020/12/20 09:47:19;;;;;;;39.75;20.33;;;;;;;6.65;100.00;102674.34;5014627;28;20040;-71
2020/12/20 09:50:07;;;;;;;48.38;23.58;;;;;;;6.96;100.00;102673.50;5014089;28;20052;-71
2020/12/20 09:52:53;;;;;;;50.67;25.23;;;;;;;7.18;100.00;102666.31;5014894;28;20470;-72
2020/12/20 09:55:41;;;;;;;49.67;22.55;;;;;;;6.73;100.00;102675.44;5014404;28;20030;-72
2020/12/20 09:58:28;;;;;;;43.95;21.40;;;;;;;6.07;100.00;102667.31;5014223;28;20054;-72
2020/12/20 10:01:20;;;;;;;47.17;23.70;;;;;;;6.14;100.00;102669.28;5015501;28;20033;-72
2020/12/20 10:04:05;;;;;;;47.30;24.08;;;;;;;6.62;100.00;102668.13;5014792;28;20026;-73
2020/12/20 10:06:51;;;;;;;38.78;19.83;;;;;;;5.58;100.00;102658.72;5014782;28;20038;-72
2020/12/20 10:09:37;;;;;;;37.58;18.52;;;;;;;5.87;100.00;102661.44;5015996;28;20113;-72
2020/12/20 10:12:23;;;;;;;45.20;22.33;;;;;;;5.86;100.00;102664.03;5014519;28;20022;-71
2020/12/20 10:15:08;;;;;;;43.47;21.80;;;;;;;6.03;100.00;102660.25;5014198;28;20036;-72
2020/12/20 10:17:56;;;;;;;47.38;23.35;;;;;;;6.47;100.00;102658.16;5014146;28;20537;-73
2020/12/20 10:20:42;;;;;;;44.22;23.02;;;;;;;6.89;100.00;102662.03;5014088;28;20421;-71
2020/12/20 10:23:28;;;;;;;44.67;21.15;;;;;;;6.17;100.00;102653.75;5014299;28;20088;-71
2020/12/20 10:26:15;;;;;;;47.00;21.75;;;;;;;6.70;100.00;102653.63;5013949;28;20044;-72
2020/12/20 10:29:01;;;;;;;62.55;31.00;;;;;;;6.05;100.00;102655.97;5013862;28;20026;-72
2020/12/20 10:31:47;;;;;;;48.58;22.95;;;;;;;5.88;100.00;102650.25;5013773;28;20461;-73
2020/12/20 10:34:32;;;;;;;42.30;20.63;;;;;;;6.20;100.00;102646.03;5014821;28;20029;-72
2020/12/20 10:37:18;;;;;;;36.92;18.80;;;;;;;5.73;100.00;102643.59;5013580;28;20021;-73
2020/12/20 10:40:04;;;;;;;40.78;20.08;;;;;;;6.12;100.00;102640.59;5014715;28;20037;-73
2020/12/20 10:42:50;;;;;;;45.03;20.75;;;;;;;6.66;100.00;102646.56;5014017;28;20029;-72
2020/12/20 10:45:35;;;;;;;41.45;20.40;;;;;;;6.67;100.00;102640.53;5013646;28;20413;-73
2020/12/20 10:48:21;;;;;;;34.72;18.25;;;;;;;6.80;100.00;102642.66;5013290;28;20046;-72
2020/12/20 10:51:10;;;;;;;33.72;17.33;;;;;;;6.70;100.00;102640.59;5013531;28;20037;-73
2020/12/20 10:53:56;;;;;;;35.92;18.50;;;;;;;6.26;100.00;102636.69;5012939;28;20026;-72
2020/12/20 10:56:41;;;;;;;34.70;18.45;;;;;;;6.62;100.00;102634.28;5013744;28;20137;-72
2020/12/20 10:59:30;;;;;;;34.88;18.40;;;;;;;6.75;100.00;102631.22;5012962;28;20026;-72
2020/12/20 11:02:15;;;;;;;31.35;16.95;;;;;;;6.71;100.00;102629.38;5013095;28;20584;-72
2020/12/20 11:05:01;;;;;;;38.00;17.60;;;;;;;6.47;100.00;102626.06;5014620;28;20080;-73
2020/12/20 11:07:47;;;;;;;31.38;17.80;;;;;;;6.62;100.00;102626.47;5013208;28;20057;-73
2020/12/20 11:10:33;;;;;;;35.05;17.83;;;;;;;6.91;100.00;102623.84;5013597;28;20014;-72
2020/12/20 11:13:19;;;;;;;33.75;18.98;;;;;;;6.94;100.00;102625.66;5014152;28;20018;-72
2020/12/20 11:16:05;;;;;;;40.78;21.35;;;;;;;6.75;100.00;102631.22;5012908;28;20030;-73
2020/12/20 11:18:51;;;;;;;71.15;34.88;;;;;;;6.96;100.00;102621.38;5014226;28;20172;-72
2020/12/20 11:21:37;;;;;;;34.97;18.75;;;;;;;6.50;100.00;102618.31;5012941;28;20037;-72
2020/12/20 11:24:23;;;;;;;31.48;16.85;;;;;;;6.63;100.00;102615.25;5013179;28;20088;-72
2020/12/20 11:27:09;;;;;;;29.40;15.73;;;;;;;6.31;100.00;102614.28;5013822;28;20376;-73
2020/12/20 11:29:55;;;;;;;30.98;16.27;;;;;;;6.57;100.00;102618.53;5012857;28;20065;-73
2020/12/20 11:32:40;;;;;;;30.73;17.02;;;;;;;6.60;100.00;102617.75;5013038;28;20022;-73
2020/12/20 11:35:26;;;;;;;28.02;15.63;;;;;;;6.91;100.00;102616.03;5012960;28;20029;-71
2020/12/20 11:38:12;;;;;;;27.42;16.08;;;;;;;6.70;100.00;102624.97;5013656;28;20034;-72
2020/12/20 11:40:59;;;;;;;29.58;17.02;;;;;;;6.52;100.00;102617.53;5013068;28;20101;-73
2020/12/20 11:43:44;;;;;;;27.60;15.93;;;;;;;6.92;100.00;102612.63;5014059;28;20033;-72
2020/12/20 11:46:30;;;;;;;32.78;17.42;;;;;;;6.70;100.00;102614.56;5013967;28;20029;-73
2020/12/20 11:49:16;;;;;;;29.58;16.17;;;;;;;6.76;100.00;102614.75;5011899;28;20120;-72
2020/12/20 11:52:02;;;;;;;29.80;17.02;;;;;;;7.06;100.00;102610.34;5013033;28;20026;-74
2020/12/20 11:54:47;;;;;;;27.95;16.13;;;;;;;7.18;100.00;102603.75;5013052;28;20022;-73
2020/12/20 11:57:34;;;;;;;29.92;17.02;;;;;;;6.89;100.00;102596.88;5012992;28;20095;-72
2020/12/20 12:00:19;;;;;;;29.08;16.50;;;;;;;7.43;100.00;102598.31;5013258;28;20222;-71
2020/12/20 12:03:05;;;;;;;31.70;17.35;;;;;;;7.43;100.00;102600.06;5012504;28;20040;-71
2020/12/20 12:05:51;;;;;;;28.17;16.63;;;;;;;7.41;100.00;102600.03;5013583;28;20030;-72
2020/12/20 12:08:37;;;;;;;28.55;16.65;;;;;;;7.39;100.00;102601.69;5015106;28;20022;-72
2020/12/20 12:11:23;;;;;;;29.65;16.83;;;;;;;6.62;100.00;102610.84;5013863;28;20033;-72
2020/12/20 12:14:09;;;;;;;26.92;15.35;;;;;;;6.20;100.00;102610.50;5014012;28;20343;-71
2020/12/20 12:16:54;;;;;;;26.90;16.13;;;;;;;6.00;100.00;102606.41;5013792;28;20444;-71
2020/12/20 12:19:40;;;;;;;34.53;18.85;;;;;;;6.46;100.00;102612.13;5015466;28;20022;-72
2020/12/20 12:22:26;;;;;;;31.88;18.58;;;;;;;6.53;100.00;102614.09;5019073;28;20026;-72
2020/12/20 12:25:11;;;;;;;30.23;16.92;;;;;;;6.65;100.00;102609.22;5022744;28;20034;-74
2020/12/20 12:27:57;;;;;;;25.52;15.38;;;;;;;6.61;100.00;102616.91;5023269;28;20053;-72
2020/12/20 12:30:43;;;;;;;27.17;16.27;;;;;;;6.57;100.00;102615.94;5024099;28;20022;-71
2020/12/20 12:33:29;;;;;;;27.80;16.50;;;;;;;7.21;100.00;102609.06;5023498;28;20522;-72
2020/12/20 12:36:15;;;;;;;29.88;17.58;;;;;;;6.36;100.00;102610.13;5021015;28;20108;-72
2020/12/20 12:39:03;;;;;;;30.17;18.05;;;;;;;6.44;100.00;102611.22;5021643;28;20366;-71
2020/12/20 12:41:49;;;;;;;31.13;16.88;;;;;;;6.51;100.00;102620.09;5021475;28;20038;-71